Welcome to the New NWS' Forecast!
Most changes are behind the scenes, but click here for differences you might notice.

Terminal Aerodrome Forecast (TAF)

Issued by National Weather Service (NWS)

                            
000
FTUS42 KKEY 120728 AAA
TAFEYW
TAF AMD
KEYW 120728Z 1207/1306 08008G16KT P6SM FEW025
     FM121100 08009G18KT P6SM VCSH SCT025 SCT050
     FM121600 12009G18KT P6SM SCT025
     FM122100 11009KT P6SM FEW025=